createdAt,value
2018-05-14T00:00:46.544Z,23.9
2018-05-14T00:01:55.710Z,23.93
2018-05-14T00:03:05.138Z,23.91
2018-05-14T00:04:14.369Z,23.88
2018-05-14T00:05:23.823Z,24
2018-05-14T00:06:33.501Z,23.93
2018-05-14T00:07:42.909Z,23.9
2018-05-14T00:08:52.104Z,23.87
2018-05-14T00:10:01.098Z,23.95
2018-05-14T00:11:10.338Z,23.93
2018-05-14T00:12:19.541Z,23.85
2018-05-14T00:13:29.368Z,23.91
2018-05-14T00:14:38.881Z,23.94
2018-05-14T00:15:48.310Z,23.95
2018-05-14T00:16:57.575Z,23.85
2018-05-14T00:18:06.548Z,23.85
2018-05-14T00:19:16.236Z,23.9
2018-05-14T00:20:24.923Z,23.84
2018-05-14T00:21:34.118Z,23.9
2018-05-14T00:22:43.019Z,23.9
2018-05-14T00:23:51.925Z,23.87
2018-05-14T00:25:01.100Z,23.84
2018-05-14T00:26:10.280Z,23.87
2018-05-14T00:27:19.987Z,23.79
2018-05-14T00:28:29.675Z,23.88
2018-05-14T00:29:39.392Z,23.9
2018-05-14T00:30:49.357Z,23.85
2018-05-14T00:31:59.357Z,23.78
2018-05-14T00:33:08.810Z,23.79
2018-05-14T00:34:17.751Z,23.76
2018-05-14T00:35:26.985Z,23.79
2018-05-14T00:36:35.887Z,23.78
2018-05-14T00:37:45.321Z,23.78
2018-05-14T00:38:55.026Z,23.79
2018-05-14T00:40:03.990Z,23.85
2018-05-14T00:41:13.695Z,23.8
2018-05-14T00:42:23.387Z,23.79
2018-05-14T00:43:32.801Z,23.75
2018-05-14T00:44:42.242Z,23.8
2018-05-14T00:45:52.217Z,23.79
2018-05-14T00:47:01.660Z,23.79
2018-05-14T00:48:11.353Z,23.78
2018-05-14T00:49:20.854Z,23.75
2018-05-14T00:50:30.652Z,23.76
2018-05-14T00:51:39.825Z,23.79
2018-05-14T00:52:49.247Z,23.8
2018-05-14T00:53:58.484Z,23.72
2018-05-14T00:55:07.660Z,23.76
2018-05-14T00:56:17.111Z,23.84
2018-05-14T00:57:26.646Z,23.76
2018-05-14T00:58:36.094Z,23.79
2018-05-14T00:59:45.905Z,23.85
2018-05-14T01:00:55.080Z,23.73
2018-05-14T01:02:04.552Z,23.84
2018-05-14T01:03:13.990Z,23.73
2018-05-14T01:04:23.449Z,23.72
2018-05-14T01:05:33.139Z,23.79
2018-05-14T01:06:43.081Z,23.85
2018-05-14T01:07:52.542Z,23.78
2018-05-14T01:09:02.229Z,23.84
2018-05-14T01:10:11.219Z,23.76
2018-05-14T01:11:20.925Z,23.7
2018-05-14T01:12:30.085Z,23.8
2018-05-14T01:13:39.257Z,23.84
2018-05-14T01:14:48.461Z,23.85
2018-05-14T01:15:57.644Z,23.78
2018-05-14T01:17:06.713Z,23.84
2018-05-14T01:18:16.391Z,23.88
2018-05-14T01:19:25.557Z,23.68
2018-05-14T01:20:34.748Z,23.69
2018-05-14T01:21:44.469Z,23.68
2018-05-14T01:22:54.212Z,23.84
2018-05-14T01:24:03.642Z,23.76
2018-05-14T01:25:12.554Z,23.63
2018-05-14T01:26:22.496Z,23.72
2018-05-14T01:27:31.694Z,23.75
2018-05-14T01:28:41.139Z,23.68
2018-05-14T01:29:50.301Z,23.7
2018-05-14T01:31:00.027Z,23.7
2018-05-14T01:32:09.202Z,23.7
2018-05-14T01:33:18.613Z,23.73
2018-05-14T01:34:28.564Z,23.76
2018-05-14T01:35:38.017Z,23.72
2018-05-14T01:36:47.240Z,23.79
2018-05-14T01:37:56.445Z,23.72
2018-05-14T01:39:05.869Z,23.65
2018-05-14T01:40:15.552Z,23.69
2018-05-14T01:41:24.778Z,23.78
2018-05-14T01:42:34.466Z,23.68
2018-05-14T01:43:44.167Z,23.68
2018-05-14T01:44:53.598Z,23.76
2018-05-14T01:46:03.024Z,23.63
2018-05-14T01:47:12.475Z,23.68
2018-05-14T01:48:22.399Z,23.78
2018-05-14T01:49:32.168Z,23.69
2018-05-14T01:50:42.135Z,23.7
2018-05-14T01:51:51.797Z,23.7
2018-05-14T01:53:01.806Z,23.7
2018-05-14T01:54:11.247Z,23.63
2018-05-14T01:55:20.435Z,23.73
2018-05-14T01:56:29.357Z,23.7
2018-05-14T01:57:38.529Z,23.76
2018-05-14T01:58:47.728Z,23.76
2018-05-14T01:59:57.407Z,23.68
2018-05-14T02:01:06.842Z,23.72
2018-05-14T02:02:16.036Z,23.75
2018-05-14T02:03:25.466Z,23.68
2018-05-14T02:04:35.157Z,23.79
2018-05-14T02:05:44.831Z,23.73
2018-05-14T02:06:54.352Z,23.63
2018-05-14T02:08:03.816Z,23.61
2018-05-14T02:09:13.240Z,23.65
2018-05-14T02:10:22.691Z,23.63
2018-05-14T02:11:32.380Z,23.63
2018-05-14T02:12:41.803Z,23.65
2018-05-14T02:13:51.586Z,23.6
2018-05-14T02:15:01.035Z,23.63
2018-05-14T02:16:10.728Z,23.65
2018-05-14T02:17:20.164Z,23.65
2018-05-14T02:18:29.594Z,23.6
2018-05-14T02:19:39.054Z,23.63
2018-05-14T02:20:48.216Z,23.6
2018-05-14T02:21:57.405Z,23.61
2018-05-14T02:23:06.864Z,23.63
2018-05-14T02:24:16.290Z,23.66
2018-05-14T02:25:26.036Z,23.63
2018-05-14T02:26:35.211Z,23.65
2018-05-14T02:27:44.639Z,23.65
2018-05-14T02:28:54.075Z,23.61
2018-05-14T02:30:03.760Z,23.65
2018-05-14T02:31:12.988Z,23.66
2018-05-14T02:32:21.920Z,23.65
2018-05-14T02:33:31.121Z,23.68
2018-05-14T02:34:40.297Z,23.61
2018-05-14T02:35:49.979Z,23.54
2018-05-14T02:36:59.433Z,23.58
2018-05-14T02:38:08.889Z,23.65
2018-05-14T02:39:18.312Z,23.61
2018-05-14T02:40:28.270Z,23.58
2018-05-14T02:41:37.949Z,23.63
2018-05-14T02:42:47.363Z,23.58
2018-05-14T02:43:57.063Z,23.61
2018-05-14T02:45:06.258Z,23.58
2018-05-14T02:46:15.460Z,23.66
2018-05-14T02:47:25.385Z,23.6
2018-05-14T02:48:35.377Z,23.66
2018-05-14T02:49:45.168Z,23.58
2018-05-14T02:50:54.333Z,23.65
2018-05-14T02:52:03.817Z,23.58
2018-05-14T02:53:13.576Z,23.6
2018-05-14T02:54:23.306Z,23.65
2018-05-14T02:55:32.747Z,23.63
2018-05-14T02:56:41.941Z,23.58
2018-05-14T02:57:51.926Z,23.6
2018-05-14T02:59:01.386Z,23.63
2018-05-14T03:00:10.834Z,23.55
2018-05-14T03:01:20.300Z,23.58
2018-05-14T03:02:30.386Z,23.6
2018-05-14T03:03:39.702Z,23.6
2018-05-14T03:04:49.859Z,23.55
2018-05-14T03:05:59.125Z,23.61
2018-05-14T03:07:08.849Z,23.61
2018-05-14T03:08:18.855Z,23.54
2018-05-14T03:09:28.847Z,23.61
2018-05-14T03:10:38.218Z,23.55
2018-05-14T03:11:47.467Z,23.58
2018-05-14T03:12:57.199Z,23.51
2018-05-14T03:14:06.368Z,23.57
2018-05-14T03:15:15.545Z,23.55
2018-05-14T03:16:25.245Z,23.55
2018-05-14T03:17:33.898Z,23.47
2018-05-14T03:18:43.447Z,23.55
2018-05-14T03:19:53.166Z,23.53
2018-05-14T03:21:02.848Z,23.54
2018-05-14T03:22:11.520Z,23.53
2018-05-14T03:23:20.955Z,23.53
2018-05-14T03:24:30.382Z,23.55
2018-05-14T03:25:40.089Z,23.53
2018-05-14T03:26:49.265Z,23.51
2018-05-14T03:27:58.455Z,23.54
2018-05-14T03:29:07.857Z,23.58
2018-05-14T03:30:17.539Z,23.54
2018-05-14T03:31:27.230Z,23.5
2018-05-14T03:32:36.937Z,23.48
2018-05-14T03:33:46.397Z,23.51
2018-05-14T03:34:55.820Z,23.47
2018-05-14T03:36:04.997Z,23.53
2018-05-14T03:37:14.699Z,23.48
2018-05-14T03:38:23.932Z,23.53
2018-05-14T03:39:33.379Z,23.53
2018-05-14T03:40:42.625Z,23.46
2018-05-14T03:41:51.850Z,23.48
2018-05-14T03:43:01.810Z,23.47
2018-05-14T03:44:10.960Z,23.42
2018-05-14T03:45:20.436Z,23.43
2018-05-14T03:46:29.891Z,23.5
2018-05-14T03:47:39.318Z,23.42
2018-05-14T03:48:48.996Z,23.42
2018-05-14T03:49:58.154Z,23.46
2018-05-14T03:51:07.319Z,23.51
2018-05-14T03:52:16.540Z,23.4
2018-05-14T03:53:26.005Z,23.43
2018-05-14T03:54:35.712Z,23.4
2018-05-14T03:55:45.673Z,23.42
2018-05-14T03:56:54.919Z,23.46
2018-05-14T03:58:04.529Z,23.47
2018-05-14T03:59:13.709Z,23.46
2018-05-14T04:00:23.649Z,23.48
2018-05-14T04:01:33.098Z,23.47
2018-05-14T04:02:42.534Z,23.43
2018-05-14T04:03:52.128Z,23.38
2018-05-14T04:05:01.563Z,23.43
2018-05-14T04:06:10.481Z,23.31
2018-05-14T04:07:19.949Z,23.43
2018-05-14T04:08:30.196Z,23.35
2018-05-14T04:09:39.419Z,23.35
2018-05-14T04:10:49.091Z,23.36
2018-05-14T04:11:58.534Z,23.35
2018-05-14T04:13:08.039Z,23.36
2018-05-14T04:14:17.210Z,23.36
2018-05-14T04:15:26.639Z,23.46
2018-05-14T04:16:36.499Z,23.39
2018-05-14T04:17:46.193Z,23.35
2018-05-14T04:18:55.472Z,23.36
2018-05-14T04:20:05.140Z,23.38
2018-05-14T04:21:14.824Z,23.32
2018-05-14T04:22:24.805Z,23.36
2018-05-14T04:23:33.971Z,23.38
2018-05-14T04:24:43.671Z,23.36
2018-05-14T04:25:53.098Z,23.35
2018-05-14T04:27:02.304Z,23.32
2018-05-14T04:28:11.799Z,23.39
2018-05-14T04:29:21.216Z,23.39
2018-05-14T04:30:30.403Z,23.36
2018-05-14T04:31:40.111Z,23.38
2018-05-14T04:32:49.549Z,23.39
2018-05-14T04:33:58.229Z,23.39
2018-05-14T04:35:07.472Z,23.36
2018-05-14T04:36:17.626Z,23.39
2018-05-14T04:37:27.111Z,23.36
2018-05-14T04:38:36.789Z,23.4
2018-05-14T04:39:46.000Z,23.4
2018-05-14T04:40:55.678Z,23.35
2018-05-14T04:42:05.110Z,23.39
2018-05-14T04:43:14.799Z,23.43
2018-05-14T04:44:24.742Z,23.4
2018-05-14T04:45:33.911Z,23.39
2018-05-14T04:46:43.775Z,23.39
2018-05-14T04:47:53.495Z,23.43
2018-05-14T04:49:03.220Z,23.39
2018-05-14T04:50:12.909Z,23.39
2018-05-14T04:51:22.415Z,23.42
2018-05-14T04:52:32.380Z,23.4
2018-05-14T04:53:41.828Z,23.38
2018-05-14T04:54:51.615Z,23.39
2018-05-14T04:56:00.794Z,23.36
2018-05-14T04:57:10.023Z,23.4
2018-05-14T04:58:19.212Z,23.5
2018-05-14T04:59:28.634Z,23.43
2018-05-14T05:00:39.032Z,23.42
2018-05-14T05:01:48.739Z,23.43
2018-05-14T05:02:58.183Z,23.47
2018-05-14T05:04:07.907Z,23.47
2018-05-14T05:05:17.336Z,23.55
2018-05-14T05:06:27.018Z,23.5
2018-05-14T05:07:36.206Z,23.47
2018-05-14T05:08:45.642Z,23.5
2018-05-14T05:09:55.324Z,23.53
2018-05-14T05:11:04.540Z,23.53
2018-05-14T05:12:14.222Z,23.57
2018-05-14T05:13:23.383Z,23.57
2018-05-14T05:14:33.318Z,23.61
2018-05-14T05:15:42.513Z,23.6
2018-05-14T05:16:51.964Z,23.55
2018-05-14T05:18:01.126Z,23.61
2018-05-14T05:19:10.567Z,23.63
2018-05-14T05:20:20.273Z,23.6
2018-05-14T05:21:29.005Z,23.63
2018-05-14T05:22:38.426Z,23.61
2018-05-14T05:23:48.511Z,23.68
2018-05-14T05:24:58.474Z,23.65
2018-05-14T05:26:07.650Z,23.63
2018-05-14T05:27:17.605Z,23.68
2018-05-14T05:28:27.193Z,23.69
2018-05-14T05:29:36.992Z,23.63
2018-05-14T05:30:46.685Z,23.68
2018-05-14T05:31:56.123Z,23.63
2018-05-14T05:33:05.933Z,23.69
2018-05-14T05:34:15.146Z,23.7
2018-05-14T05:35:24.592Z,23.7
2018-05-14T05:36:33.772Z,23.61
2018-05-14T05:37:43.646Z,23.68
2018-05-14T05:38:53.253Z,23.72
2018-05-14T05:40:02.973Z,23.65
2018-05-14T05:41:12.133Z,23.7
2018-05-14T05:42:21.599Z,23.73
2018-05-14T05:43:31.034Z,23.72
2018-05-14T05:44:40.747Z,23.72
2018-05-14T05:45:49.931Z,23.68
2018-05-14T05:46:58.850Z,23.65
2018-05-14T05:48:08.346Z,23.68
2018-05-14T05:49:17.287Z,23.73
2018-05-14T05:50:26.476Z,23.78
2018-05-14T05:51:35.423Z,23.72
2018-05-14T05:52:44.836Z,23.65
2018-05-14T05:53:53.996Z,23.75
2018-05-14T05:55:02.891Z,23.79
2018-05-14T05:56:12.344Z,23.68
2018-05-14T05:57:22.055Z,23.76
2018-05-14T05:58:31.996Z,23.72
2018-05-14T05:59:41.240Z,23.76
2018-05-14T06:00:50.440Z,23.63
2018-05-14T06:01:59.356Z,23.68
2018-05-14T06:03:09.068Z,23.73
2018-05-14T06:04:18.508Z,23.63
2018-05-14T06:05:28.037Z,23.76
2018-05-14T06:06:37.455Z,23.68
2018-05-14T06:07:46.625Z,23.76
2018-05-14T06:08:56.078Z,23.7
2018-05-14T06:10:05.278Z,23.7
2018-05-14T06:11:14.818Z,23.76
2018-05-14T06:12:24.591Z,23.69
2018-05-14T06:13:34.017Z,23.79
2018-05-14T06:14:43.470Z,23.73
2018-05-14T06:15:53.185Z,23.8
2018-05-14T06:17:02.387Z,23.8
2018-05-14T06:18:11.571Z,23.83
2018-05-14T06:19:20.512Z,23.73
2018-05-14T06:20:29.437Z,23.7
2018-05-14T06:21:38.875Z,23.78
2018-05-14T06:22:48.336Z,23.73
2018-05-14T06:23:57.482Z,23.69
2018-05-14T06:25:06.692Z,23.69
2018-05-14T06:26:16.638Z,23.72
2018-05-14T06:27:26.584Z,23.79
2018-05-14T06:28:36.021Z,23.79
2018-05-14T06:29:45.233Z,23.83
2018-05-14T06:30:54.678Z,23.8
2018-05-14T06:32:04.117Z,23.83
2018-05-14T06:33:12.780Z,23.83
2018-05-14T06:34:22.021Z,23.84
2018-05-14T06:35:31.802Z,23.79
2018-05-14T06:36:41.526Z,23.73
2018-05-14T06:37:51.505Z,23.8
2018-05-14T06:39:00.716Z,23.78
2018-05-14T06:40:10.416Z,23.85
2018-05-14T06:41:19.338Z,23.85
2018-05-14T06:42:28.529Z,23.94
2018-05-14T06:43:38.216Z,23.85
2018-05-14T06:44:47.161Z,23.85
2018-05-14T06:45:56.848Z,23.8
2018-05-14T06:47:06.528Z,23.87
2018-05-14T06:48:15.780Z,23.88
2018-05-14T06:49:24.967Z,23.84
2018-05-14T06:50:33.886Z,23.84
2018-05-14T06:51:42.957Z,23.84
2018-05-14T06:52:51.874Z,23.91
2018-05-14T06:54:01.300Z,23.9
2018-05-14T06:55:10.838Z,23.93
2018-05-14T06:56:20.434Z,23.87
2018-05-14T06:57:30.148Z,23.87
2018-05-14T06:58:39.574Z,23.97
2018-05-14T06:59:49.284Z,23.84
2018-05-14T07:00:58.723Z,23.79
2018-05-14T07:02:08.269Z,23.87
2018-05-14T07:03:17.775Z,23.88
2018-05-14T07:04:26.948Z,23.83
2018-05-14T07:05:36.125Z,23.85
2018-05-14T07:06:45.037Z,23.87
2018-05-14T07:07:54.225Z,23.9
2018-05-14T07:09:03.664Z,23.94
2018-05-14T07:10:13.418Z,23.97
2018-05-14T07:11:22.098Z,23.9
2018-05-14T07:12:32.177Z,23.85
2018-05-14T07:13:41.086Z,23.84
2018-05-14T07:14:50.257Z,23.88
2018-05-14T07:16:00.204Z,23.9
2018-05-14T07:17:10.576Z,23.93
2018-05-14T07:18:20.511Z,23.9
2018-05-14T07:19:30.218Z,23.9
2018-05-14T07:20:39.464Z,23.95
2018-05-14T07:21:49.179Z,23.91
2018-05-14T07:22:58.359Z,23.87
2018-05-14T07:24:07.520Z,23.93
2018-05-14T07:25:16.412Z,23.88
2018-05-14T07:26:25.862Z,23.95
2018-05-14T07:27:35.828Z,23.88
2018-05-14T07:28:45.281Z,23.94
2018-05-14T07:29:54.736Z,23.9
2018-05-14T07:31:04.407Z,23.91
2018-05-14T07:32:13.329Z,23.87
2018-05-14T07:33:22.765Z,23.87
2018-05-14T07:34:31.860Z,23.93
2018-05-14T07:35:41.016Z,23.85
2018-05-14T07:36:50.089Z,23.93
2018-05-14T07:37:59.630Z,23.87
2018-05-14T07:39:08.781Z,23.98
2018-05-14T07:40:18.465Z,23.97
2018-05-14T07:41:28.203Z,23.94
2018-05-14T07:42:37.631Z,23.91
2018-05-14T07:43:47.752Z,23.85
2018-05-14T07:44:57.177Z,23.98
2018-05-14T07:46:06.472Z,23.91
2018-05-14T07:47:16.094Z,23.91
2018-05-14T07:48:25.539Z,23.95
2018-05-14T07:49:34.707Z,23.98
2018-05-14T07:50:44.131Z,23.94
2018-05-14T07:51:53.308Z,23.93
2018-05-14T07:53:02.738Z,23.91
2018-05-14T07:54:12.160Z,23.91
2018-05-14T07:55:21.345Z,24
2018-05-14T07:56:31.277Z,24.03
2018-05-14T07:57:40.720Z,23.97
2018-05-14T07:58:50.422Z,24.02
2018-05-14T07:59:59.586Z,23.97
2018-05-14T08:01:09.029Z,24.02
2018-05-14T08:02:18.488Z,24.05
2018-05-14T08:03:28.183Z,24.09
2018-05-14T08:04:37.147Z,24
2018-05-14T08:05:46.983Z,24.05
2018-05-14T08:06:56.836Z,23.94
2018-05-14T08:08:07.172Z,23.98
2018-05-14T08:09:16.598Z,24.03
2018-05-14T08:10:25.818Z,24.02
2018-05-14T08:11:34.851Z,24
2018-05-14T08:12:45.188Z,24.02
2018-05-14T08:13:54.883Z,24.03
2018-05-14T08:15:04.065Z,24.02
2018-05-14T08:16:13.502Z,24.05
2018-05-14T08:17:23.438Z,24.05
2018-05-14T08:18:32.602Z,24.05
2018-05-14T08:19:42.642Z,24.08
2018-05-14T08:20:52.616Z,24.02
2018-05-14T08:22:02.296Z,24.08
2018-05-14T08:23:11.763Z,24.03
2018-05-14T08:24:21.186Z,24.03
2018-05-14T08:25:30.668Z,24.08
2018-05-14T08:26:40.114Z,24.05
2018-05-14T08:27:49.873Z,24.06
2018-05-14T08:28:59.603Z,24.02
2018-05-14T08:30:08.757Z,24.03
2018-05-14T08:31:18.511Z,24.06
2018-05-14T08:32:27.986Z,24.03
2018-05-14T08:33:36.966Z,24.06
2018-05-14T08:34:46.678Z,24.08
2018-05-14T08:35:56.126Z,24.06
2018-05-14T08:37:05.957Z,24.1
2018-05-14T08:38:15.877Z,24.06
2018-05-14T08:39:25.053Z,24.06
2018-05-14T08:40:35.007Z,24.02
2018-05-14T08:41:44.698Z,24.13
2018-05-14T08:42:54.792Z,24.03
2018-05-14T08:44:04.732Z,24.05
2018-05-14T08:45:14.567Z,24.1
2018-05-14T08:46:23.998Z,24.09
2018-05-14T08:47:32.913Z,24.06
2018-05-14T08:48:42.469Z,24.09
2018-05-14T08:49:51.404Z,24.08
2018-05-14T08:51:00.585Z,24.09
2018-05-14T08:52:10.020Z,24
2018-05-14T08:53:19.692Z,24
2018-05-14T08:54:29.650Z,24.05
2018-05-14T08:55:39.186Z,24.15
2018-05-14T08:56:48.408Z,24.08
2018-05-14T08:57:57.592Z,24.06
2018-05-14T08:59:07.019Z,24.06
2018-05-14T09:00:16.201Z,24.08
2018-05-14T09:01:25.378Z,24.06
2018-05-14T09:02:34.552Z,24.12
2018-05-14T09:03:43.721Z,24.09
2018-05-14T09:04:53.404Z,24.08
2018-05-14T09:06:02.299Z,24.1
2018-05-14T09:07:11.516Z,24.12
2018-05-14T09:08:20.712Z,24.13
2018-05-14T09:09:29.888Z,24.09
2018-05-14T09:10:40.086Z,24.16
2018-05-14T09:11:49.552Z,24.09
2018-05-14T09:12:58.745Z,24.08
2018-05-14T09:14:07.961Z,24.1
2018-05-14T09:15:17.388Z,24.09
2018-05-14T09:16:26.813Z,24.09
2018-05-14T09:17:36.764Z,24.06
2018-05-14T09:18:46.442Z,24.08
2018-05-14T09:19:56.121Z,24.09
2018-05-14T09:21:05.295Z,24.09
2018-05-14T09:22:15.101Z,24.06
2018-05-14T09:23:24.545Z,24.15
2018-05-14T09:24:34.216Z,24.13
2018-05-14T09:25:43.678Z,24.18
2018-05-14T09:26:53.359Z,24.13
2018-05-14T09:28:02.805Z,24.1
2018-05-14T09:29:12.513Z,24.1
2018-05-14T09:30:22.202Z,24.09
2018-05-14T09:31:31.883Z,24.06
2018-05-14T09:32:41.309Z,24.02
2018-05-14T09:33:50.816Z,24.05
2018-05-14T09:35:00.755Z,24.13
2018-05-14T09:36:09.926Z,24.03
2018-05-14T09:37:19.447Z,24.2
2018-05-14T09:38:28.891Z,24.15
2018-05-14T09:39:38.614Z,24.18
2018-05-14T09:40:48.331Z,24.15
2018-05-14T09:41:57.782Z,24.05
2018-05-14T09:43:07.474Z,24.12
2018-05-14T09:44:17.439Z,24.05
2018-05-14T09:45:26.859Z,24.08
2018-05-14T09:46:36.288Z,24.12
2018-05-14T09:47:45.718Z,24.16
2018-05-14T09:48:55.425Z,24.12
2018-05-14T09:50:04.852Z,24.15
2018-05-14T09:51:14.364Z,24.08
2018-05-14T09:52:23.279Z,24.18
2018-05-14T09:53:33.143Z,24.06
2018-05-14T09:54:42.850Z,24.18
2018-05-14T09:55:52.283Z,24.22
2018-05-14T09:57:01.732Z,24.13
2018-05-14T09:58:10.908Z,24.18
2018-05-14T09:59:20.620Z,24.13
2018-05-14T10:00:29.809Z,24.21
2018-05-14T10:01:38.722Z,24.22
2018-05-14T10:02:47.899Z,24.24
2018-05-14T10:03:56.815Z,24.18
2018-05-14T10:05:07.087Z,24.21
2018-05-14T10:06:16.794Z,24.21
2018-05-14T10:07:26.250Z,24.18
2018-05-14T10:08:35.670Z,24.25
2018-05-14T10:09:44.614Z,24.15
2018-05-14T10:10:53.779Z,24.13
2018-05-14T10:12:02.693Z,24.15
2018-05-14T10:13:12.115Z,24.2
2018-05-14T10:14:21.544Z,24.16
2018-05-14T10:15:31.001Z,24.13
2018-05-14T10:16:40.439Z,24.15
2018-05-14T10:17:49.913Z,24.28
2018-05-14T10:18:59.363Z,24.2
2018-05-14T10:20:08.526Z,24.25
2018-05-14T10:21:17.434Z,24.2
2018-05-14T10:22:26.610Z,24.25
2018-05-14T10:23:36.037Z,24.2
2018-05-14T10:24:46.296Z,24.21
2018-05-14T10:25:56.100Z,24.2
2018-05-14T10:27:05.301Z,24.2
2018-05-14T10:28:14.723Z,24.15
2018-05-14T10:29:23.397Z,24.18
2018-05-14T10:30:33.265Z,24.13
2018-05-14T10:31:42.470Z,24.18
2018-05-14T10:32:51.904Z,24.25
2018-05-14T10:34:01.070Z,24.25
2018-05-14T10:35:10.552Z,24.28
2018-05-14T10:36:20.232Z,24.24
2018-05-14T10:37:29.656Z,24.2
2018-05-14T10:38:39.346Z,24.25
2018-05-14T10:39:48.003Z,24.25
2018-05-14T10:40:57.262Z,24.24
2018-05-14T10:42:06.435Z,24.18
2018-05-14T10:43:16.141Z,24.24
2018-05-14T10:44:25.336Z,24.27
2018-05-14T10:45:35.018Z,24.15
2018-05-14T10:46:44.244Z,24.24
2018-05-14T10:47:53.809Z,24.24
2018-05-14T10:49:02.720Z,24.28
2018-05-14T10:50:11.623Z,24.27
2018-05-14T10:51:21.311Z,24.21
2018-05-14T10:52:30.507Z,24.24
2018-05-14T10:53:39.405Z,24.24
2018-05-14T10:54:48.829Z,24.24
2018-05-14T10:55:58.562Z,24.3
2018-05-14T10:57:07.731Z,24.27
2018-05-14T10:58:17.420Z,24.24
2018-05-14T10:59:27.130Z,24.32
2018-05-14T11:00:36.557Z,24.21
2018-05-14T11:01:45.724Z,24.25
2018-05-14T11:02:55.149Z,24.28
2018-05-14T11:04:04.903Z,24.18
2018-05-14T11:05:14.363Z,24.31
2018-05-14T11:06:23.309Z,24.28
2018-05-14T11:07:32.738Z,24.27
2018-05-14T11:08:41.904Z,24.27
2018-05-14T11:09:51.621Z,24.31
2018-05-14T11:11:01.573Z,24.28
2018-05-14T11:12:10.752Z,24.27
2018-05-14T11:13:20.446Z,24.31
2018-05-14T11:14:29.869Z,24.2
2018-05-14T11:15:39.298Z,24.3
2018-05-14T11:16:48.488Z,24.28
2018-05-14T11:17:58.177Z,24.3
2018-05-14T11:19:07.119Z,24.3
2018-05-14T11:20:16.540Z,24.28
2018-05-14T11:21:26.923Z,24.28
2018-05-14T11:22:36.091Z,24.28
2018-05-14T11:23:45.259Z,24.32
2018-05-14T11:24:54.944Z,24.27
2018-05-14T11:26:04.911Z,24.28
2018-05-14T11:27:14.614Z,24.28
2018-05-14T11:28:24.049Z,24.31
2018-05-14T11:29:33.490Z,24.28
2018-05-14T11:30:43.235Z,24.32
2018-05-14T11:31:51.899Z,24.31
2018-05-14T11:33:01.065Z,24.28
2018-05-14T11:34:10.012Z,24.28
2018-05-14T11:35:19.724Z,24.3
2018-05-14T11:36:29.709Z,24.34
2018-05-14T11:37:39.398Z,24.22
2018-05-14T11:38:48.847Z,24.3
2018-05-14T11:39:58.542Z,24.3
2018-05-14T11:41:08.242Z,24.25
2018-05-14T11:42:18.190Z,24.25
2018-05-14T11:43:27.377Z,24.3
2018-05-14T11:44:37.038Z,24.31
2018-05-14T11:45:46.452Z,24.31
2018-05-14T11:46:55.889Z,24.28
2018-05-14T11:48:05.366Z,24.32
2018-05-14T11:49:15.063Z,24.34
2018-05-14T11:50:24.549Z,24.3
2018-05-14T11:51:33.713Z,24.3
2018-05-14T11:52:43.121Z,24.28
2018-05-14T11:53:52.025Z,24.3
2018-05-14T11:55:01.224Z,24.34
2018-05-14T11:56:11.017Z,24.34
2018-05-14T11:57:20.732Z,24.35
2018-05-14T11:58:30.435Z,24.3
2018-05-14T11:59:40.114Z,24.31
2018-05-14T12:00:49.780Z,24.28
2018-05-14T12:01:58.961Z,24.32
2018-05-14T12:03:07.984Z,24.28
2018-05-14T12:04:17.633Z,24.3
2018-05-14T12:05:27.408Z,24.24
2018-05-14T12:06:37.385Z,24.31
2018-05-14T12:07:46.322Z,24.28
2018-05-14T12:08:55.830Z,24.31
2018-05-14T12:10:05.033Z,24.3
2018-05-14T12:11:14.933Z,24.3
2018-05-14T12:12:24.376Z,24.31
2018-05-14T12:13:33.801Z,24.25
2018-05-14T12:14:43.540Z,24.32
2018-05-14T12:15:52.985Z,24.34
2018-05-14T12:17:02.936Z,24.3
2018-05-14T12:18:13.301Z,24.24
2018-05-14T12:19:23.305Z,24.25
2018-05-14T12:20:33.010Z,24.27
2018-05-14T12:21:42.458Z,24.32
2018-05-14T12:22:52.140Z,24.37
2018-05-14T12:24:01.085Z,24.35
2018-05-14T12:25:10.009Z,24.35
2018-05-14T12:26:19.440Z,24.24
2018-05-14T12:27:28.885Z,24.37
2018-05-14T12:28:38.582Z,24.32
2018-05-14T12:29:47.495Z,24.32
2018-05-14T12:30:56.661Z,24.32
2018-05-14T12:32:06.519Z,24.27
2018-05-14T12:33:16.361Z,24.46
2018-05-14T12:34:25.543Z,24.4
2018-05-14T12:35:35.041Z,24.34
2018-05-14T12:36:44.998Z,24.4
2018-05-14T12:37:54.421Z,24.4
2018-05-14T12:39:03.936Z,24.43
2018-05-14T12:40:13.636Z,24.28
2018-05-14T12:41:22.792Z,24.32
2018-05-14T12:42:31.702Z,24.39
2018-05-14T12:43:41.112Z,24.34
2018-05-14T12:44:50.792Z,24.27
2018-05-14T12:45:59.686Z,24.42
2018-05-14T12:47:09.749Z,24.45
2018-05-14T12:48:19.176Z,24.4
2018-05-14T12:49:28.071Z,24.34
2018-05-14T12:50:36.726Z,24.46
2018-05-14T12:51:46.444Z,24.46
2018-05-14T12:52:56.260Z,24.34
2018-05-14T12:54:05.683Z,24.32
2018-05-14T12:55:15.358Z,24.34
2018-05-14T12:56:24.790Z,24.46
2018-05-14T12:57:33.709Z,24.43
2018-05-14T12:58:43.124Z,24.37
2018-05-14T12:59:52.291Z,24.39
2018-05-14T13:01:01.481Z,24.34
2018-05-14T13:02:10.654Z,24.3
2018-05-14T13:03:20.356Z,24.45
2018-05-14T13:04:29.319Z,24.3
2018-05-14T13:05:38.496Z,24.34
2018-05-14T13:06:47.667Z,24.31
2018-05-14T13:07:56.913Z,24.45
2018-05-14T13:09:06.343Z,24.45
2018-05-14T13:10:15.769Z,24.28
2018-05-14T13:11:24.671Z,24.32
2018-05-14T13:12:33.602Z,24.39
2018-05-14T13:13:42.753Z,24.47
2018-05-14T13:14:52.448Z,24.39
2018-05-14T13:16:01.605Z,24.35
2018-05-14T13:17:10.754Z,24.4
2018-05-14T13:18:20.180Z,24.4
2018-05-14T13:19:29.612Z,24.46
2018-05-14T13:20:39.400Z,24.42
2018-05-14T13:21:48.335Z,24.32
2018-05-14T13:22:58.031Z,24.3
2018-05-14T13:24:07.192Z,24.46
2018-05-14T13:25:17.335Z,24.37
2018-05-14T13:26:26.896Z,24.42
2018-05-14T13:27:36.062Z,24.42
2018-05-14T13:28:46.004Z,24.34
2018-05-14T13:29:55.688Z,24.3
2018-05-14T13:31:05.118Z,24.31
2018-05-14T13:32:15.095Z,24.4
2018-05-14T13:33:24.513Z,24.37
2018-05-14T13:34:33.939Z,24.34
2018-05-14T13:35:43.679Z,24.34
2018-05-14T13:36:53.409Z,24.34
2018-05-14T13:38:03.870Z,24.4
2018-05-14T13:39:13.251Z,24.31
2018-05-14T13:40:22.661Z,24.31
2018-05-14T13:41:32.361Z,24.34
2018-05-14T13:42:41.773Z,24.43
2018-05-14T13:43:50.990Z,24.42
2018-05-14T13:45:00.682Z,24.35
2018-05-14T13:46:10.109Z,24.43
2018-05-14T13:47:19.531Z,24.39
2018-05-14T13:48:28.939Z,24.45
2018-05-14T13:49:38.100Z,24.34
2018-05-14T13:50:47.508Z,24.42
2018-05-14T13:51:56.752Z,24.37
2018-05-14T13:53:06.452Z,24.46
2018-05-14T13:54:16.158Z,24.5
2018-05-14T13:55:25.584Z,24.45
2018-05-14T13:56:35.523Z,24.42
2018-05-14T13:57:44.690Z,24.5
2018-05-14T13:58:54.127Z,24.5
2018-05-14T14:00:03.544Z,24.47
2018-05-14T14:01:12.706Z,24.47
2018-05-14T14:02:21.868Z,24.46
2018-05-14T14:03:31.052Z,24.5
2018-05-14T14:04:40.462Z,24.5
2018-05-14T14:05:49.869Z,24.53
2018-05-14T14:06:59.291Z,24.5
2018-05-14T14:08:08.477Z,24.47
2018-05-14T14:09:17.907Z,24.53
2018-05-14T14:10:27.325Z,24.61
2018-05-14T14:11:36.903Z,24.58
2018-05-14T14:12:46.351Z,24.58
2018-05-14T14:13:56.013Z,24.52
2018-05-14T14:15:05.444Z,24.53
2018-05-14T14:16:14.881Z,24.58
2018-05-14T14:17:24.304Z,24.57
2018-05-14T14:18:33.214Z,24.6
2018-05-14T14:19:42.615Z,24.57
2018-05-14T14:20:52.321Z,24.6
2018-05-14T14:22:02.012Z,24.58
2018-05-14T14:23:12.026Z,24.55
2018-05-14T14:24:22.178Z,24.62
2018-05-14T14:25:31.447Z,24.57
2018-05-14T14:26:41.243Z,24.6
2018-05-14T14:27:50.940Z,24.57
2018-05-14T14:29:00.644Z,24.57
2018-05-14T14:30:09.809Z,24.6
2018-05-14T14:31:19.295Z,24.6
2018-05-14T14:32:28.443Z,24.55
2018-05-14T14:33:37.635Z,24.58
2018-05-14T14:34:46.541Z,24.57
2018-05-14T14:35:56.091Z,24.53
2018-05-14T14:37:06.136Z,24.61
2018-05-14T14:38:15.529Z,24.6
2018-05-14T14:39:25.217Z,24.58
2018-05-14T14:40:34.376Z,24.57
2018-05-14T14:41:43.291Z,24.58
2018-05-14T14:42:53.041Z,24.57
2018-05-14T14:44:02.494Z,24.55
2018-05-14T14:45:11.955Z,24.57
2018-05-14T14:46:21.272Z,24.58
2018-05-14T14:47:31.208Z,24.58
2018-05-14T14:48:40.367Z,24.61
2018-05-14T14:49:50.048Z,24.57
2018-05-14T14:50:59.493Z,24.57
2018-05-14T14:52:09.193Z,24.57
2018-05-14T14:53:18.908Z,24.6
2018-05-14T14:54:28.592Z,24.53
2018-05-14T14:55:37.506Z,24.58
2018-05-14T14:56:46.686Z,24.6
2018-05-14T14:57:56.383Z,24.57
2018-05-14T14:59:05.611Z,24.55